Time;durP1;ratioP1;P1;durP2;ratioP2;P2;SDS_P1;SDS_P2;PMS_P1;PMS_P2;Temp;Humidity;BMP_temperature;BMP_pressure;BME280_temperature;BME280_humidity;BME280_pressure;Samples;Min_cycle;Max_cycle;Signal;HPM_P1;HPM_P2
2022/03/19 00:00:38;;;;;;;52.47;35.60;;;9.90;99.90;;;;;;5076018;28;20114;-82
2022/03/19 00:03:04;;;;;;;51.83;34.85;;;9.90;99.90;;;;;;5076006;28;20051;-82
2022/03/19 00:05:30;;;;;;;52.70;36.03;;;9.90;99.90;;;;;;5075892;28;20036;-82
2022/03/19 00:07:56;;;;;;;53.83;36.53;;;9.90;99.90;;;;;;5075982;28;20390;-82
2022/03/19 00:10:22;;;;;;;49.45;35.13;;;9.90;99.90;;;;;;5075893;28;20021;-82
2022/03/19 00:12:48;;;;;;;55.08;36.15;;;9.80;99.90;;;;;;5075793;28;20028;-82
2022/03/19 00:15:16;;;;;;;53.10;36.35;;;9.90;99.90;;;;;;5075734;28;20036;-82
2022/03/19 00:17:42;;;;;;;52.40;36.78;;;9.80;99.90;;;;;;5094235;28;20020;-82
2022/03/19 00:20:08;;;;;;;50.42;35.03;;;9.80;99.90;;;;;;5075044;28;20047;-81
2022/03/19 00:22:35;;;;;;;52.05;34.88;;;9.80;99.90;;;;;;5075689;28;20036;-82
2022/03/19 00:25:01;;;;;;;55.88;37.92;;;9.80;99.90;;;;;;5093784;28;20498;-82
2022/03/19 00:27:28;;;;;;;55.28;37.95;;;9.80;99.90;;;;;;5075602;28;20059;-81
2022/03/19 00:29:53;;;;;;;53.97;37.65;;;9.80;99.90;;;;;;5075525;28;20055;-82
2022/03/19 00:32:19;;;;;;;52.90;37.15;;;9.80;99.90;;;;;;5075510;28;20446;-82
2022/03/19 00:34:45;;;;;;;55.35;35.55;;;9.80;99.90;;;;;;5075432;28;20028;-81
2022/03/19 00:37:10;;;;;;;56.95;37.50;;;9.80;99.90;;;;;;5093591;28;20070;-82
2022/03/19 00:39:36;;;;;;;50.90;35.17;;;9.80;99.90;;;;;;5075364;28;20028;-82
2022/03/19 00:42:02;;;;;;;60.20;38.35;;;9.80;99.90;;;;;;5075314;28;20028;-82
2022/03/19 00:44:28;;;;;;;54.60;38.47;;;9.70;99.90;;;;;;5093423;28;20391;-82
2022/03/19 00:46:54;;;;;;;56.10;37.88;;;9.70;99.90;;;;;;5075245;28;20032;-82
2022/03/19 00:49:19;;;;;;;54.83;38.72;;;9.70;99.90;;;;;;5075322;28;20024;-82
2022/03/19 00:51:45;;;;;;;54.83;36.80;;;9.70;99.90;;;;;;5075251;28;20158;-82
2022/03/19 00:54:12;;;;;;;51.25;36.85;;;9.70;99.90;;;;;;5093326;28;20024;-82
2022/03/19 00:56:39;;;;;;;54.72;37.85;;;9.70;99.90;;;;;;5075095;28;20028;-82
2022/03/19 00:59:05;;;;;;;50.80;36.95;;;9.70;99.90;;;;;;5075082;28;20082;-81
2022/03/19 01:01:30;;;;;;;54.80;38.00;;;9.70;99.90;;;;;;5075102;28;20024;-82
2022/03/19 01:03:56;;;;;;;54.70;37.03;;;9.60;99.90;;;;;;5093225;28;20035;-82
2022/03/19 01:06:22;;;;;;;59.55;38.92;;;9.70;99.90;;;;;;5093097;28;20027;-82
2022/03/19 01:08:48;;;;;;;58.40;38.35;;;9.70;99.90;;;;;;5074978;28;20035;-82
2022/03/19 01:11:14;;;;;;;55.35;38.47;;;9.70;99.90;;;;;;5075062;28;20387;-82
2022/03/19 01:13:39;;;;;;;52.88;37.95;;;9.60;99.90;;;;;;5093092;28;20445;-82
2022/03/19 01:16:05;;;;;;;55.53;37.67;;;9.60;99.90;;;;;;5075410;28;20059;-82
2022/03/19 01:18:31;;;;;;;56.00;39.38;;;9.60;99.90;;;;;;5092993;28;20024;-82
2022/03/19 01:20:58;;;;;;;55.28;38.08;;;9.60;99.90;;;;;;5092858;28;20044;-82
2022/03/19 01:23:24;;;;;;;56.50;39.55;;;9.60;99.90;;;;;;5074874;28;20486;-82
2022/03/19 01:25:50;;;;;;;53.17;37.60;;;9.60;99.90;;;;;;5074759;28;20085;-82
2022/03/19 01:28:15;;;;;;;55.90;39.28;;;9.60;99.90;;;;;;5074857;28;20024;-82
2022/03/19 01:30:41;;;;;;;59.15;38.42;;;9.60;99.90;;;;;;5074768;28;20016;-82
2022/03/19 01:33:07;;;;;;;58.35;39.13;;;9.60;99.90;;;;;;5095327;28;20432;-82
2022/03/19 01:35:32;;;;;;;54.17;38.08;;;9.60;99.90;;;;;;5078895;28;20489;-82
2022/03/19 01:37:58;;;;;;;55.70;38.63;;;9.50;99.90;;;;;;5078881;28;20024;-82
2022/03/19 01:40:25;;;;;;;57.10;40.35;;;9.50;99.90;;;;;;5078916;28;20111;-82
2022/03/19 01:42:52;;;;;;;54.13;38.75;;;9.50;99.90;;;;;;5078809;28;20039;-82
2022/03/19 01:45:20;;;;;;;58.20;39.08;;;9.50;99.90;;;;;;5078805;28;20031;-82
2022/03/19 01:47:49;;;;;;;56.03;38.33;;;9.50;99.90;;;;;;5078773;28;20051;-82
2022/03/19 01:50:16;;;;;;;58.78;38.42;;;9.50;99.90;;;;;;5078676;28;20020;-81
2022/03/19 01:52:42;;;;;;;56.53;39.13;;;9.50;99.90;;;;;;5078676;28;20027;-82
2022/03/19 01:55:10;;;;;;;54.03;37.97;;;9.40;99.90;;;;;;5078583;28;20024;-81
2022/03/19 01:57:38;;;;;;;57.35;39.95;;;9.50;99.90;;;;;;5078487;28;20149;-82
2022/03/19 02:00:09;;;;;;;55.95;38.50;;;9.40;99.90;;;;;;5096684;28;20077;-82
2022/03/19 02:02:35;;;;;;;55.78;38.17;;;9.40;99.90;;;;;;5078515;28;20106;-81
2022/03/19 02:05:03;;;;;;;55.67;38.13;;;9.40;99.90;;;;;;5078301;28;20028;-82
2022/03/19 02:07:30;;;;;;;55.17;37.55;;;9.40;99.90;;;;;;5078297;28;20035;-82
2022/03/19 02:10:00;;;;;;;54.92;38.40;;;9.40;99.90;;;;;;5096513;28;20482;-82
2022/03/19 02:12:26;;;;;;;54.97;38.92;;;9.40;99.90;;;;;;5078251;28;20376;-82
2022/03/19 02:14:52;;;;;;;56.78;37.80;;;9.40;99.90;;;;;;5078237;28;20024;-82
2022/03/19 02:17:18;;;;;;;55.10;37.08;;;9.40;99.90;;;;;;5078157;28;20035;-82
2022/03/19 02:19:49;;;;;;;53.95;37.65;;;9.40;99.90;;;;;;5074589;28;20119;-82
2022/03/19 02:22:16;;;;;;;54.35;37.45;;;9.40;99.90;;;;;;5074757;28;20178;-81
2022/03/19 02:27:25;;;;;;;56.42;38.35;;;9.40;99.90;;;;;;5076021;28;20403;-82
2022/03/19 02:29:52;;;;;;;54.03;38.35;;;9.40;99.90;;;;;;5074697;28;20025;-82
2022/03/19 02:32:18;;;;;;;54.17;36.63;;;9.40;99.90;;;;;;5075332;28;20111;-82
2022/03/19 02:34:44;;;;;;;50.65;36.90;;;9.40;99.90;;;;;;5074516;28;20032;-82
2022/03/19 02:37:09;;;;;;;52.80;36.30;;;9.40;99.90;;;;;;5075752;28;20033;-81
2022/03/19 02:39:35;;;;;;;54.20;37.17;;;9.40;99.90;;;;;;5075708;28;20028;-82
2022/03/19 02:42:05;;;;;;;56.22;38.20;;;9.40;99.90;;;;;;5074255;28;20369;-82
2022/03/19 02:44:31;;;;;;;51.63;37.28;;;9.40;99.90;;;;;;5073550;28;20028;-82
2022/03/19 02:47:00;;;;;;;50.25;37.10;;;9.40;99.90;;;;;;5074320;28;20088;-82
2022/03/19 02:49:26;;;;;;;54.95;37.88;;;9.40;99.90;;;;;;5075534;28;20105;-81
2022/03/19 02:51:53;;;;;;;54.47;35.72;;;9.40;99.90;;;;;;5074196;28;20139;-82
2022/03/19 02:54:22;;;;;;;57.38;38.17;;;9.40;99.90;;;;;;5074190;28;20025;-82
2022/03/19 02:56:49;;;;;;;50.97;36.08;;;9.30;99.90;;;;;;5074156;28;20025;-82
2022/03/19 02:59:17;;;;;;;52.35;37.17;;;9.30;99.90;;;;;;5074039;28;20029;-82
2022/03/19 03:01:48;;;;;;;47.58;34.42;;;9.30;99.90;;;;;;5074097;28;20051;-82
2022/03/19 03:04:13;;;;;;;54.70;37.90;;;9.30;99.90;;;;;;5074005;28;20396;-82
2022/03/19 03:06:42;;;;;;;51.53;36.50;;;9.30;99.90;;;;;;5074288;28;20025;-82
2022/03/19 03:09:09;;;;;;;51.00;36.70;;;9.30;99.90;;;;;;5073954;28;20044;-82
2022/03/19 03:11:36;;;;;;;49.35;35.13;;;9.30;99.90;;;;;;5073917;28;20476;-82
2022/03/19 03:14:02;;;;;;;52.97;36.45;;;9.20;99.90;;;;;;5075245;28;20383;-81
2022/03/19 03:16:29;;;;;;;53.88;36.33;;;9.30;99.90;;;;;;5075434;28;20107;-82
2022/03/19 03:19:01;;;;;;;52.80;36.80;;;9.20;99.90;;;;;;5075371;28;20028;-82
2022/03/19 03:21:27;;;;;;;52.50;36.05;;;9.20;99.90;;;;;;5092644;28;20039;-82
2022/03/19 03:23:56;;;;;;;52.00;35.97;;;9.20;99.90;;;;;;5077096;28;20074;-82
2022/03/19 03:26:22;;;;;;;52.95;35.67;;;9.20;99.90;;;;;;5095066;28;20489;-82
2022/03/19 03:28:48;;;;;;;54.67;37.47;;;9.20;99.90;;;;;;5077006;28;20047;-82
2022/03/19 03:31:14;;;;;;;52.88;35.78;;;9.20;99.90;;;;;;5076814;28;20483;-82
2022/03/19 03:33:40;;;;;;;55.78;36.97;;;9.20;99.90;;;;;;5076852;28;20147;-82
2022/03/19 03:36:06;;;;;;;49.88;35.45;;;9.20;99.90;;;;;;5094903;28;20054;-82
2022/03/19 03:38:32;;;;;;;52.22;36.88;;;9.20;99.90;;;;;;5076797;28;20399;-82
2022/03/19 03:40:57;;;;;;;52.65;35.20;;;9.10;99.90;;;;;;5076717;28;20077;-82
2022/03/19 03:43:23;;;;;;;51.53;34.92;;;9.20;99.90;;;;;;5094852;28;20453;-82
2022/03/19 03:45:50;;;;;;;53.08;35.63;;;9.10;99.90;;;;;;5076604;28;20434;-82
2022/03/19 03:48:16;;;;;;;53.78;35.83;;;9.10;99.90;;;;;;5076531;28;20024;-81
2022/03/19 03:50:42;;;;;;;53.50;35.80;;;9.10;99.90;;;;;;5076536;28;20024;-82
2022/03/19 03:53:08;;;;;;;52.88;36.55;;;9.10;99.90;;;;;;5076476;28;20437;-82
2022/03/19 03:55:36;;;;;;;53.42;35.40;;;9.10;99.90;;;;;;5075506;28;20027;-82
2022/03/19 03:58:03;;;;;;;50.50;34.95;;;9.10;99.90;;;;;;5076344;28;20028;-82
2022/03/19 04:00:30;;;;;;;52.50;35.70;;;9.10;99.90;;;;;;5076303;28;20125;-82
2022/03/19 04:02:56;;;;;;;49.67;34.85;;;9.10;99.90;;;;;;5094359;28;20020;-82
2022/03/19 04:05:22;;;;;;;51.25;34.00;;;9.00;99.90;;;;;;5076084;28;20024;-82
2022/03/19 04:07:48;;;;;;;48.45;33.97;;;9.00;99.90;;;;;;5094285;28;20027;-82
2022/03/19 04:10:14;;;;;;;46.90;33.63;;;9.10;99.90;;;;;;5076021;28;20182;-82
2022/03/19 04:12:39;;;;;;;47.88;34.38;;;9.10;99.90;;;;;;5076025;28;20482;-82
2022/03/19 04:15:06;;;;;;;50.17;34.38;;;9.20;99.90;;;;;;5075929;28;20077;-82
2022/03/19 04:17:32;;;;;;;53.15;35.55;;;9.10;99.90;;;;;;5076381;28;20024;-82
2022/03/19 04:19:58;;;;;;;54.72;34.75;;;9.00;99.90;;;;;;5093829;28;20122;-82
2022/03/19 04:22:24;;;;;;;50.70;34.95;;;9.00;99.90;;;;;;5075881;28;20125;-82
2022/03/19 04:24:49;;;;;;;48.50;33.45;;;9.00;99.90;;;;;;5075712;28;20074;-82
2022/03/19 04:27:15;;;;;;;50.30;34.53;;;9.00;99.90;;;;;;5075707;28;20495;-82
2022/03/19 04:29:41;;;;;;;56.33;36.17;;;9.00;99.90;;;;;;5075724;28;20024;-82
2022/03/19 04:32:08;;;;;;;51.97;34.90;;;9.00;99.90;;;;;;5075652;28;20074;-82
2022/03/19 04:34:34;;;;;;;48.05;32.65;;;9.00;99.90;;;;;;5075608;28;20024;-82
2022/03/19 04:37:00;;;;;;;45.15;32.97;;;8.90;99.90;;;;;;5093735;28;20408;-82
2022/03/19 04:39:25;;;;;;;50.47;35.15;;;8.90;99.90;;;;;;5093763;28;20077;-82
2022/03/19 04:41:51;;;;;;;49.30;33.83;;;8.90;99.90;;;;;;5093715;28;20030;-82
2022/03/19 04:44:17;;;;;;;51.80;33.95;;;8.90;99.90;;;;;;5075461;28;20047;-82
2022/03/19 04:46:43;;;;;;;48.45;32.95;;;8.90;99.90;;;;;;5093608;28;20472;-82
2022/03/19 04:49:09;;;;;;;52.20;33.70;;;8.90;99.90;;;;;;5075430;28;20051;-82
2022/03/19 04:51:37;;;;;;;45.67;32.55;;;8.90;99.90;;;;;;5075350;28;20034;-82
2022/03/19 04:54:04;;;;;;;47.15;32.83;;;8.70;99.90;;;;;;5075356;28;20020;-82
2022/03/19 04:56:30;;;;;;;50.60;33.78;;;8.70;99.90;;;;;;5093469;28;20397;-82
2022/03/19 04:58:58;;;;;;;46.70;32.45;;;8.70;99.90;;;;;;5075327;28;20024;-83
2022/03/19 05:01:29;;;;;;;51.40;33.67;;;8.70;99.90;;;;;;5075241;28;20085;-82
2022/03/19 05:03:55;;;;;;;48.22;33.67;;;8.70;99.90;;;;;;5075258;28;20498;-82
2022/03/19 05:06:21;;;;;;;44.95;31.95;;;8.70;99.90;;;;;;5074894;28;20024;-82
2022/03/19 05:11:35;;;;;;;46.28;32.45;;;8.70;99.90;;;;;;5052215;28;20036;-82
2022/03/19 05:14:00;;;;;;;48.15;32.35;;;8.70;99.90;;;;;;5075091;28;20020;-82
2022/03/19 05:16:26;;;;;;;50.00;32.20;;;8.70;99.90;;;;;;5075349;28;20435;-82
2022/03/19 05:18:52;;;;;;;51.90;32.03;;;8.70;99.90;;;;;;5075026;28;20028;-82
2022/03/19 05:21:18;;;;;;;47.60;33.08;;;8.70;99.90;;;;;;5074940;28;20074;-81
2022/03/19 05:23:45;;;;;;;47.38;31.75;;;8.60;99.90;;;;;;5093152;28;20077;-82
2022/03/19 05:26:11;;;;;;;51.53;32.78;;;8.60;99.90;;;;;;5074880;28;20039;-82
2022/03/19 05:28:37;;;;;;;45.70;33.38;;;8.60;99.90;;;;;;5074983;28;20024;-82
2022/03/19 05:31:04;;;;;;;46.13;31.77;;;8.60;99.90;;;;;;5075313;28;20020;-82
2022/03/19 05:36:14;;;;;;;49.10;32.72;;;8.60;99.90;;;;;;5093668;28;20031;-82
2022/03/19 05:38:41;;;;;;;48.60;32.95;;;8.70;99.90;;;;;;5075000;28;20028;-82
2022/03/19 05:41:07;;;;;;;47.63;32.78;;;8.70;99.90;;;;;;5093022;28;20026;-82
2022/03/19 05:43:33;;;;;;;48.58;32.50;;;8.60;99.90;;;;;;5074825;28;20080;-81
2022/03/19 05:45:58;;;;;;;48.45;31.58;;;8.60;99.90;;;;;;5074762;28;20487;-82
2022/03/19 05:48:24;;;;;;;48.45;33.28;;;8.60;99.90;;;;;;5074798;28;20021;-82
2022/03/19 05:50:50;;;;;;;44.20;31.67;;;8.70;99.90;;;;;;5092935;28;20031;-82
2022/03/19 05:53:16;;;;;;;49.28;33.15;;;8.60;99.90;;;;;;5074742;28;20020;-82
2022/03/19 05:55:41;;;;;;;46.50;33.10;;;8.70;99.90;;;;;;5093153;28;20472;-82
2022/03/19 05:58:07;;;;;;;47.67;32.25;;;8.60;99.90;;;;;;5074753;28;20028;-82
2022/03/19 06:00:33;;;;;;;51.22;33.03;;;8.60;99.90;;;;;;5075278;28;20031;-82
2022/03/19 06:02:58;;;;;;;45.60;31.80;;;8.60;99.90;;;;;;5074698;28;20034;-82
2022/03/19 06:05:24;;;;;;;47.75;32.33;;;8.60;99.90;;;;;;5074630;28;20237;-82
2022/03/19 06:07:50;;;;;;;46.70;31.17;;;8.60;99.90;;;;;;5092771;28;20028;-82
2022/03/19 06:10:16;;;;;;;46.22;32.33;;;8.70;99.90;;;;;;5074612;28;20024;-82
2022/03/19 06:12:45;;;;;;;45.17;31.10;;;8.60;99.90;;;;;;5092755;28;20017;-82
2022/03/19 06:15:11;;;;;;;47.13;32.47;;;8.70;99.90;;;;;;5074600;28;20035;-82
2022/03/19 06:17:36;;;;;;;44.90;31.52;;;8.70;99.90;;;;;;5074572;28;20028;-82
2022/03/19 06:20:02;;;;;;;43.78;30.15;;;8.70;99.90;;;;;;5077801;28;20098;-82
2022/03/19 06:22:28;;;;;;;51.08;31.90;;;8.70;99.90;;;;;;5078125;28;20115;-82
2022/03/19 06:24:54;;;;;;;47.35;32.42;;;8.70;99.90;;;;;;5078151;28;20128;-82
2022/03/19 06:27:19;;;;;;;45.80;31.42;;;8.70;99.90;;;;;;5078132;28;20444;-82
2022/03/19 06:29:45;;;;;;;44.70;31.33;;;8.70;99.90;;;;;;5077998;28;20033;-82
2022/03/19 06:32:11;;;;;;;46.85;32.00;;;8.70;99.90;;;;;;5078041;28;20051;-82
2022/03/19 06:34:36;;;;;;;43.70;31.58;;;8.80;99.90;;;;;;5078014;28;20181;-82
2022/03/19 06:37:20;;;;;;;46.83;32.00;;;8.80;99.90;;;;;;5078197;28;20024;-82
2022/03/19 06:39:53;;;;;;;45.13;31.20;;;8.80;99.90;;;;;;5077890;28;20073;-82
2022/03/19 06:42:19;;;;;;;46.13;30.83;;;8.80;99.90;;;;;;5077839;28;20565;-82
2022/03/19 06:44:44;;;;;;;44.60;30.75;;;8.90;99.90;;;;;;5077646;28;20027;-82
2022/03/19 06:47:10;;;;;;;46.00;30.50;;;8.90;99.90;;;;;;5095901;28;20024;-82
2022/03/19 06:49:36;;;;;;;42.80;30.50;;;8.90;99.90;;;;;;5077639;28;20493;-82
2022/03/19 06:52:02;;;;;;;44.55;30.30;;;9.00;99.90;;;;;;5077628;28;20471;-82
2022/03/19 06:54:27;;;;;;;45.20;30.80;;;9.00;99.90;;;;;;5096046;28;20016;-82
2022/03/19 06:56:54;;;;;;;44.15;30.77;;;9.10;99.90;;;;;;5077606;28;20023;-82
2022/03/19 06:59:20;;;;;;;41.63;29.58;;;9.10;99.90;;;;;;5077530;28;20078;-82
2022/03/19 07:01:46;;;;;;;42.53;29.85;;;9.20;99.90;;;;;;5077529;28;20359;-82
2022/03/19 07:04:11;;;;;;;46.00;29.80;;;9.20;99.90;;;;;;5077474;28;20016;-82
2022/03/19 07:06:37;;;;;;;45.20;29.48;;;9.30;99.90;;;;;;5077552;28;20089;-82
2022/03/19 07:09:04;;;;;;;44.88;29.17;;;9.30;99.90;;;;;;5077415;28;20020;-82
2022/03/19 07:11:31;;;;;;;42.88;29.33;;;9.30;99.90;;;;;;5077279;28;20074;-82
2022/03/19 07:13:57;;;;;;;43.80;29.30;;;9.30;99.90;;;;;;5095595;28;20016;-83
2022/03/19 07:16:23;;;;;;;42.80;29.77;;;9.40;99.90;;;;;;5077130;28;20051;-82
2022/03/19 07:18:49;;;;;;;43.65;28.55;;;9.40;99.90;;;;;;5077078;28;20058;-82
2022/03/19 07:21:15;;;;;;;42.05;28.52;;;9.50;99.90;;;;;;5076848;28;20048;-82
2022/03/19 07:23:42;;;;;;;42.88;27.73;;;9.50;99.90;;;;;;5077055;28;20126;-82
2022/03/19 07:26:07;;;;;;;41.22;28.00;;;9.50;99.90;;;;;;5076931;28;20028;-82
2022/03/19 07:28:33;;;;;;;40.85;28.20;;;9.60;99.90;;;;;;5076933;28;20379;-82
2022/03/19 07:31:00;;;;;;;42.90;27.90;;;9.60;99.90;;;;;;5076872;28;20050;-82
2022/03/19 07:33:27;;;;;;;41.97;28.85;;;9.60;99.90;;;;;;5076803;28;20121;-82
2022/03/19 07:35:53;;;;;;;40.58;27.63;;;9.70;99.90;;;;;;5076681;28;20028;-82
2022/03/19 07:38:19;;;;;;;42.15;28.45;;;9.70;99.90;;;;;;5076737;28;20024;-82
2022/03/19 07:43:30;;;;;;;41.60;27.77;;;9.70;99.90;;;;;;5095659;28;20233;-82
2022/03/19 07:45:56;;;;;;;38.30;28.05;;;9.80;99.90;;;;;;5076459;28;20043;-82
2022/03/19 07:48:21;;;;;;;39.85;28.17;;;9.80;99.90;;;;;;5076551;28;20411;-82
2022/03/19 07:50:47;;;;;;;40.13;28.15;;;9.90;99.90;;;;;;5076437;28;20031;-81
2022/03/19 07:53:13;;;;;;;41.17;27.63;;;9.80;99.90;;;;;;5076401;28;20030;-82
2022/03/19 07:55:39;;;;;;;40.45;27.67;;;9.90;99.90;;;;;;5094521;28;20020;-82
2022/03/19 07:58:04;;;;;;;40.80;27.38;;;10.00;99.90;;;;;;5076277;28;20028;-82
2022/03/19 08:00:30;;;;;;;38.47;26.75;;;10.00;99.90;;;;;;5076183;28;20069;-81
2022/03/19 08:02:56;;;;;;;38.80;27.10;;;10.00;99.90;;;;;;5094360;28;20433;-81
2022/03/19 08:05:22;;;;;;;39.65;27.35;;;10.00;99.90;;;;;;5076106;28;20020;-81
2022/03/19 08:07:48;;;;;;;38.47;26.60;;;10.00;99.90;;;;;;5076032;28;20020;-81
2022/03/19 08:10:15;;;;;;;38.70;26.38;;;10.10;99.90;;;;;;5076082;28;20093;-81
2022/03/19 08:12:42;;;;;;;40.83;26.70;;;10.10;99.90;;;;;;5076004;28;20391;-81
2022/03/19 08:15:10;;;;;;;38.80;26.65;;;10.20;99.90;;;;;;5094148;28;20074;-81
2022/03/19 08:17:41;;;;;;;37.13;24.30;;;10.20;99.90;;;;;;5094084;28;20020;-81
2022/03/19 08:20:07;;;;;;;40.38;27.67;;;10.20;99.90;;;;;;5075689;28;20052;-81
2022/03/19 08:22:34;;;;;;;42.20;27.17;;;10.20;99.90;;;;;;5075705;28;20115;-81
2022/03/19 08:25:01;;;;;;;39.35;26.15;;;10.30;99.90;;;;;;5075669;28;20129;-81
2022/03/19 08:27:27;;;;;;;36.42;24.75;;;10.30;99.90;;;;;;5075718;28;20528;-81
2022/03/19 08:29:54;;;;;;;41.88;25.85;;;10.30;99.90;;;;;;5075726;28;20105;-81
2022/03/19 08:32:22;;;;;;;37.22;25.17;;;10.30;99.90;;;;;;5093866;28;20493;-81
2022/03/19 08:34:48;;;;;;;35.65;24.58;;;10.40;99.90;;;;;;5094024;28;20024;-81
2022/03/19 08:37:14;;;;;;;39.60;25.85;;;10.40;99.90;;;;;;5075578;28;20449;-81
2022/03/19 08:42:24;;;;;;;36.53;24.60;;;10.40;99.90;;;;;;5093801;28;20039;-81
2022/03/19 08:44:50;;;;;;;37.20;25.05;;;10.50;99.90;;;;;;5075312;28;20035;-81
2022/03/19 08:47:16;;;;;;;33.55;23.50;;;10.50;99.90;;;;;;5093592;28;20055;-81
2022/03/19 08:49:41;;;;;;;38.22;24.90;;;10.60;99.90;;;;;;5075349;28;20024;-81
2022/03/19 08:52:08;;;;;;;36.63;24.25;;;10.60;99.90;;;;;;5075368;28;20027;-81
2022/03/19 08:54:33;;;;;;;33.90;24.05;;;10.60;99.90;;;;;;5075331;28;20532;-81
2022/03/19 08:56:59;;;;;;;33.90;24.42;;;10.60;99.90;;;;;;5093710;28;20024;-81
2022/03/19 08:59:25;;;;;;;34.85;23.05;;;10.70;99.90;;;;;;5075254;28;20494;-81
2022/03/19 09:01:53;;;;;;;37.75;24.35;;;10.70;99.90;;;;;;5075271;28;20077;-81
2022/03/19 09:04:18;;;;;;;34.47;23.10;;;10.70;99.90;;;;;;5075088;28;20024;-81
2022/03/19 09:06:45;;;;;;;33.53;22.75;;;10.70;99.90;;;;;;5075116;28;20039;-81
2022/03/19 09:09:13;;;;;;;35.38;23.27;;;10.80;99.90;;;;;;5075067;28;20024;-81
2022/03/19 09:11:39;;;;;;;33.58;22.65;;;10.80;99.90;;;;;;5075091;28;20024;-82
2022/03/19 09:14:06;;;;;;;34.00;21.73;;;10.80;99.90;;;;;;5093309;28;20097;-81
2022/03/19 09:16:33;;;;;;;32.80;21.55;;;10.80;99.90;;;;;;5075317;28;20455;-81
2022/03/19 09:18:59;;;;;;;29.40;21.15;;;10.90;99.90;;;;;;5075209;28;20052;-81
2022/03/19 09:21:25;;;;;;;32.20;21.58;;;10.90;99.90;;;;;;5071789;28;20127;-81
2022/03/19 09:23:51;;;;;;;32.63;21.52;;;11.00;99.90;;;;;;5071981;28;20025;-81
2022/03/19 09:26:17;;;;;;;31.27;20.80;;;11.00;99.90;;;;;;5071788;28;20060;-81
2022/03/19 09:28:45;;;;;;;32.08;21.00;;;11.00;99.90;;;;;;5072715;28;20363;-81
2022/03/19 09:31:12;;;;;;;33.65;21.17;;;11.00;99.90;;;;;;5071750;28;20433;-81
2022/03/19 09:33:39;;;;;;;30.27;20.60;;;11.00;99.90;;;;;;5071707;28;20074;-81
2022/03/19 09:36:06;;;;;;;29.42;19.77;;;11.10;99.90;;;;;;5071694;28;20111;-81
2022/03/19 09:38:31;;;;;;;32.30;19.45;;;11.10;99.90;;;;;;5071682;28;20484;-81
2022/03/19 09:40:58;;;;;;;29.17;20.30;;;11.10;99.90;;;;;;5072907;28;20028;-81
2022/03/19 09:43:25;;;;;;;29.85;19.98;;;11.10;99.90;;;;;;5071640;28;20483;-81
2022/03/19 09:45:51;;;;;;;29.02;19.33;;;11.20;99.90;;;;;;5071529;28;20115;-82
2022/03/19 09:48:17;;;;;;;29.38;18.75;;;11.20;99.90;;;;;;5073111;28;20025;-81
2022/03/19 09:50:43;;;;;;;27.42;18.58;;;11.20;99.90;;;;;;5071476;28;20021;-81
2022/03/19 09:53:09;;;;;;;27.52;18.65;;;11.20;99.90;;;;;;5071922;28;20031;-81
2022/03/19 09:55:38;;;;;;;27.95;19.00;;;11.30;99.90;;;;;;5075404;28;20033;-81
2022/03/19 09:58:04;;;;;;;27.38;18.88;;;11.30;99.90;;;;;;5075162;28;20174;-81
2022/03/19 10:00:31;;;;;;;30.13;18.60;;;11.30;99.90;;;;;;5075082;28;20527;-81
2022/03/19 10:02:59;;;;;;;26.77;18.05;;;11.30;99.90;;;;;;5076351;28;20024;-81
2022/03/19 10:11:00;;;;;;;28.75;18.13;;;11.50;99.90;;;;;;5076752;28;20491;-81
2022/03/19 10:13:26;;;;;;;26.73;18.90;;;11.50;99.90;;;;;;5074865;28;20029;-81
2022/03/19 10:15:52;;;;;;;25.33;18.23;;;11.50;99.90;;;;;;5074776;28;20032;-81
2022/03/19 10:18:18;;;;;;;29.27;19.05;;;11.50;99.90;;;;;;5075957;28;20391;-81
2022/03/19 10:20:44;;;;;;;27.30;17.77;;;11.50;99.90;;;;;;5074668;28;20048;-81
2022/03/19 10:23:11;;;;;;;29.10;18.75;;;11.60;99.90;;;;;;5074676;28;20033;-81
2022/03/19 10:25:37;;;;;;;30.13;19.42;;;11.60;99.90;;;;;;5075916;28;20400;-80
2022/03/19 10:28:08;;;;;;;27.88;18.35;;;11.60;99.90;;;;;;5076113;28;20027;-81
2022/03/19 10:30:39;;;;;;;28.23;18.10;;;11.50;99.90;;;;;;5074535;28;20048;-81
2022/03/19 10:33:08;;;;;;;29.02;18.58;;;11.60;99.90;;;;;;5074522;28;20052;-81
2022/03/19 10:35:36;;;;;;;30.77;19.13;;;11.60;99.90;;;;;;5075823;28;20494;-81
2022/03/19 10:38:16;;;;;;;30.42;18.92;;;11.60;99.90;;;;;;5076185;28;20046;-81
2022/03/19 10:40:46;;;;;;;27.35;18.45;;;11.60;99.90;;;;;;5074635;28;20403;-81
2022/03/19 10:43:12;;;;;;;31.70;18.88;;;11.70;99.90;;;;;;5075843;28;20040;-81
2022/03/19 10:45:46;;;;;;;31.77;19.15;;;11.70;99.90;;;;;;5074467;28;20052;-81
2022/03/19 10:48:13;;;;;;;27.05;18.08;;;11.70;99.90;;;;;;5074503;28;20070;-81
2022/03/19 10:50:40;;;;;;;26.85;17.40;;;11.70;99.90;;;;;;5075727;28;20035;-81
2022/03/19 10:53:06;;;;;;;27.50;18.42;;;11.70;99.90;;;;;;5075594;28;20074;-81
2022/03/19 10:55:32;;;;;;;26.70;17.30;;;11.70;99.90;;;;;;5074313;28;20035;-81
2022/03/19 10:57:58;;;;;;;31.08;18.25;;;11.80;99.90;;;;;;5074228;28;20373;-81
2022/03/19 11:00:24;;;;;;;28.23;18.55;;;11.80;99.90;;;;;;5074265;28;20081;-81
2022/03/19 11:02:54;;;;;;;29.75;17.77;;;11.80;99.90;;;;;;5074332;28;20032;-81
2022/03/19 11:05:21;;;;;;;26.25;17.50;;;11.80;99.90;;;;;;5073630;28;20494;-81
2022/03/19 11:07:48;;;;;;;26.45;18.08;;;11.80;99.90;;;;;;5075417;28;20121;-81
2022/03/19 11:10:14;;;;;;;30.42;16.58;;;11.90;99.90;;;;;;5075373;28;20016;-81
2022/03/19 11:12:43;;;;;;;25.73;18.00;;;12.00;99.90;;;;;;5073667;28;20029;-81
2022/03/19 11:15:10;;;;;;;29.30;18.45;;;12.00;99.90;;;;;;5073722;28;20029;-81
2022/03/19 11:17:40;;;;;;;29.10;18.27;;;12.00;99.90;;;;;;5073583;28;20078;-81
2022/03/19 11:20:09;;;;;;;30.30;17.83;;;12.00;99.90;;;;;;5073105;28;20059;-81
2022/03/19 11:22:40;;;;;;;27.17;18.08;;;12.10;99.90;;;;;;5073724;28;20601;-81
2022/03/19 11:25:16;;;;;;;28.80;19.05;;;12.10;99.90;;;;;;5073443;28;20115;-81
2022/03/19 11:27:46;;;;;;;29.55;19.42;;;12.10;99.90;;;;;;5074310;28;20131;-81
2022/03/19 11:30:16;;;;;;;26.02;18.27;;;12.10;99.90;;;;;;5073512;28;20024;-81
2022/03/19 11:33:00;;;;;;;31.13;18.73;;;12.10;99.90;;;;;;5074633;28;20100;-81
2022/03/19 11:35:26;;;;;;;28.27;19.23;;;12.10;99.90;;;;;;5073303;28;20484;-81
2022/03/19 11:38:03;;;;;;;32.15;20.08;;;12.10;99.90;;;;;;5074531;28;20118;-81
2022/03/19 11:40:35;;;;;;;30.35;19.98;;;12.10;99.90;;;;;;5074697;28;20139;-81
2022/03/19 11:43:06;;;;;;;29.92;19.65;;;12.20;99.90;;;;;;5073172;28;20506;-81
2022/03/19 11:45:59;;;;;;;30.90;19.67;;;12.10;99.90;;;;;;5073014;28;20020;-81
2022/03/19 11:48:40;;;;;;;33.53;20.45;;;12.10;99.90;;;;;;5059980;28;20040;-81
2022/03/19 11:51:28;;;;;;;31.23;19.23;;;12.10;99.90;;;;;;5072881;28;20120;-81
2022/03/19 11:54:11;;;;;;;33.63;21.20;;;12.00;99.90;;;;;;5074225;28;20025;-81
2022/03/19 11:56:42;;;;;;;29.63;20.70;;;12.00;99.90;;;;;;5072810;28;20031;-80
2022/03/19 11:59:43;;;;;;;32.10;20.10;;;12.10;99.90;;;;;;5072722;28;20035;-81
2022/03/19 12:02:10;;;;;;;32.20;20.25;;;12.10;99.90;;;;;;5068532;28;20044;-81
2022/03/19 12:04:48;;;;;;;30.67;19.52;;;12.10;99.90;;;;;;5072522;28;20036;-81
2022/03/19 12:07:40;;;;;;;30.30;19.85;;;12.10;99.90;;;;;;5073911;28;20488;-80
2022/03/19 12:10:24;;;;;;;29.25;18.70;;;12.10;99.90;;;;;;5072499;28;20029;-80
2022/03/19 12:12:50;;;;;;;33.03;18.77;;;12.10;99.90;;;;;;5072986;28;20023;-81
2022/03/19 12:15:34;;;;;;;27.65;18.67;;;12.10;99.90;;;;;;5073405;28;20024;-81
2022/03/19 12:18:22;;;;;;;24.52;17.70;;;12.00;99.90;;;;;;5072184;28;20086;-81
2022/03/19 12:20:49;;;;;;;27.00;17.70;;;11.90;99.90;;;;;;5072100;28;20048;-81
2022/03/19 12:23:15;;;;;;;25.70;17.30;;;11.90;99.90;;;;;;5072357;28;20046;-81
2022/03/19 12:25:58;;;;;;;25.90;16.55;;;11.80;99.90;;;;;;5073522;28;20020;-81
2022/03/19 12:28:24;;;;;;;26.55;15.50;;;11.80;99.90;;;;;;5072278;28;20020;-81
2022/03/19 12:30:50;;;;;;;22.50;16.00;;;11.80;99.90;;;;;;5072236;28;20028;-80
2022/03/19 12:33:16;;;;;;;21.92;15.27;;;11.80;99.90;;;;;;5073510;28;20032;-80
2022/03/19 12:35:43;;;;;;;20.90;13.70;;;11.90;99.90;;;;;;5072193;28;20021;-80
2022/03/19 12:38:10;;;;;;;21.77;14.68;;;12.00;99.90;;;;;;5072151;28;20111;-80
2022/03/19 12:43:22;;;;;;;20.45;13.05;;;12.00;99.90;;;;;;5073947;28;20518;-81
2022/03/19 12:45:52;;;;;;;21.40;12.98;;;12.00;99.90;;;;;;5071969;28;20116;-80
2022/03/19 12:48:21;;;;;;;19.27;12.85;;;12.00;99.90;;;;;;5072020;28;20048;-81
2022/03/19 12:50:51;;;;;;;19.20;12.98;;;11.90;99.90;;;;;;5071947;28;20017;-80
2022/03/19 12:53:32;;;;;;;17.27;12.55;;;11.90;99.90;;;;;;5071914;28;20020;-81
2022/03/19 12:56:14;;;;;;;19.88;12.02;;;11.90;99.90;;;;;;5073217;28;20145;-80